Time;durP1;ratioP1;P1;durP2;ratioP2;P2;SDS_P1;SDS_P2;PMS_P1;PMS_P2;Temp;Humidity;BMP_temperature;BMP_pressure;BME280_temperature;BME280_humidity;BME280_pressure;Samples;Min_cycle;Max_cycle;Signal;HPM_P1;HPM_P2
2021/06/18 00:00:57;;;;;;;;;;;;;;;-142.75;63.17;76208.09;5032166;28;19912;-75
2021/06/18 00:03:23;;;;;;;;;;;;;;;-142.75;63.20;76204.16;5032151;28;19967;-75
2021/06/18 00:05:48;;;;;;;;;;;;;;;-142.75;63.37;76208.09;5049893;28;19917;-75
2021/06/18 00:08:13;;;;;;;;;;;;;;;-142.75;63.63;76215.97;5049916;28;19936;-76
2021/06/18 00:10:39;;;;;;;;;;;;;;;-142.75;63.55;76219.91;5031999;28;19920;-75
2021/06/18 00:13:04;;;;;;;;;;;;;;;-142.75;63.80;76225.81;5049890;28;19916;-74
2021/06/18 00:15:29;;;;;;;;;;;;;;;-142.75;63.52;76223.84;5031937;28;19967;-75
2021/06/18 00:17:54;;;;;;;;;;;;;;;-142.75;63.38;76214.00;5052398;28;19920;-75
2021/06/18 00:20:21;;;;;;;;;;;;;;;-142.75;63.27;76206.13;5035387;28;19916;-75
2021/06/18 00:22:47;;;;;;;;;;;;;;;-142.75;63.41;76204.16;5035662;28;19917;-75
2021/06/18 00:25:12;;;;;;;;;;;;;;;-142.75;63.21;76210.06;5054049;28;19920;-75
2021/06/18 00:27:38;;;;;;;;;;;;;;;-142.75;63.41;76212.03;5035956;28;20434;-76
2021/06/18 00:30:04;;;;;;;;;;;;;;;-142.75;63.74;76212.03;5053098;28;19998;-74
2021/06/18 00:32:29;;;;;;;;;;;;;;;-142.75;63.50;76200.25;5035316;28;19976;-75
2021/06/18 00:34:54;;;;;;;;;;;;;;;-142.75;63.57;76192.38;5053577;28;19913;-75
2021/06/18 00:37:20;;;;;;;;;;;;;;;-142.75;63.87;76190.41;5053514;28;20058;-74
2021/06/18 00:39:45;;;;;;;;;;;;;;;-142.75;64.08;76190.41;5045899;28;19952;-74
2021/06/18 00:42:11;;;;;;;;;;;;;;;-142.75;64.38;76192.38;5022581;28;19912;-74
2021/06/18 00:44:36;;;;;;;;;;;;;;;-142.75;64.52;76188.44;5048508;28;19912;-74
2021/06/18 00:47:02;;;;;;;;;;;;;;;-142.75;64.26;76188.44;5053099;28;19942;-74
2021/06/18 00:49:27;;;;;;;;;;;;;;;-142.75;64.23;76188.44;5053400;28;19913;-75
2021/06/18 00:51:53;;;;;;;;;;;;;;;-142.75;64.35;76182.53;5035017;28;19921;-74
2021/06/18 00:54:28;;;;;;;;;;;;;;;-142.75;64.81;76190.41;5053678;28;19970;-75
2021/06/18 00:56:57;;;;;;;;;;;;;;;-142.75;64.68;76200.25;5034232;28;20000;-73
2021/06/18 00:59:22;;;;;;;;;;;;;;;-142.75;64.97;76214.00;5051430;28;20369;-74
2021/06/18 01:01:47;;;;;;;;;;;;;;;-142.75;65.02;76223.84;5052772;28;19924;-74
2021/06/18 01:04:12;;;;;;;;;;;;;;;-142.75;65.33;76235.66;5035203;28;19975;-75
2021/06/18 01:06:39;;;;;;;;;;;;;;;-142.75;65.34;76251.41;5052888;28;20355;-75
2021/06/18 01:09:06;;;;;;;;;;;;;;;-142.75;65.43;76255.34;5034982;28;20405;-74
2021/06/18 01:11:35;;;;;;;;;;;;;;;-142.75;65.39;76257.31;5034483;28;19912;-74
2021/06/18 01:14:11;;;;;;;;;;;;;;;-142.75;65.68;76263.22;5052565;28;19927;-74
2021/06/18 01:16:39;;;;;;;;;;;;;;;-142.75;65.87;76253.38;5023485;28;19913;-74
2021/06/18 01:19:08;;;;;;;;;;;;;;;-142.75;65.74;76241.56;5035503;28;20593;-75
2021/06/18 01:21:36;;;;;;;;;;;;;;;-142.75;65.71;76241.56;5051434;28;19912;-75
2021/06/18 01:24:04;;;;;;;;;;;;;;;-142.75;65.64;76231.72;5052579;28;19982;-75
2021/06/18 01:26:32;;;;;;;;;;;;;;;-142.75;65.74;76235.66;5052885;28;19938;-74
2021/06/18 01:28:58;;;;;;;;;;;;;;;-142.75;65.83;76229.75;5033955;28;20386;-75
2021/06/18 01:31:30;;;;;;;;;;;;;;;-142.75;65.84;76231.72;5051972;28;19948;-74
2021/06/18 01:33:58;;;;;;;;;;;;;;;-142.75;65.85;76231.72;5052617;28;19919;-74
2021/06/18 01:36:24;;;;;;;;;;;;;;;-142.75;65.77;76223.84;5052587;28;19913;-74
2021/06/18 01:38:51;;;;;;;;;;;;;;;-142.75;65.93;76221.88;5034197;28;20386;-74
2021/06/18 01:41:19;;;;;;;;;;;;;;;-142.75;66.09;76221.88;5051770;28;19913;-73
2021/06/18 01:43:46;;;;;;;;;;;;;;;-142.75;66.17;76214.00;5051051;28;19913;-75
2021/06/18 01:46:12;;;;;;;;;;;;;;;-142.75;66.10;76219.91;5032416;28;19916;-74
2021/06/18 01:48:39;;;;;;;;;;;;;;;-142.75;66.45;76225.81;5032263;28;19956;-74
2021/06/18 01:51:05;;;;;;;;;;;;;;;-142.75;66.67;76239.59;5014028;28;19941;-74
2021/06/18 01:53:31;;;;;;;;;;;;;;;-142.75;66.84;76247.47;5020812;28;19966;-74
2021/06/18 01:55:57;;;;;;;;;;;;;;;-142.75;66.89;76249.44;5027651;28;19919;-74
2021/06/18 01:58:23;;;;;;;;;;;;;;;-142.75;67.13;76249.44;5032090;28;19913;-74
2021/06/18 02:00:49;;;;;;;;;;;;;;;-142.75;67.29;76245.50;5016768;28;19921;-74
2021/06/18 02:03:16;;;;;;;;;;;;;;;-142.75;67.37;76249.44;5050605;28;19920;-74
2021/06/18 02:05:42;;;;;;;;;;;;;;;-142.75;67.38;76239.59;5033949;28;20377;-74
2021/06/18 02:08:09;;;;;;;;;;;;;;;-142.75;67.19;76245.50;5033850;28;19912;-74
2021/06/18 02:10:35;;;;;;;;;;;;;;;-142.75;67.17;76255.34;5033636;28;19960;-74
2021/06/18 02:13:01;;;;;;;;;;;;;;;-142.75;67.27;76261.25;5051350;28;19963;-74
2021/06/18 02:15:27;;;;;;;;;;;;;;;-142.75;67.47;76271.09;5034077;28;19912;-75
2021/06/18 02:17:53;;;;;;;;;;;;;;;-142.75;67.88;76277.00;5014532;28;19996;-76
2021/06/18 02:20:19;;;;;;;;;;;;;;;-142.75;68.02;76282.91;5021933;28;20008;-75
2021/06/18 02:22:47;;;;;;;;;;;;;;;-142.75;68.04;76284.88;5051592;28;19912;-75
2021/06/18 02:25:14;;;;;;;;;;;;;;;-142.75;68.27;76294.72;5034265;28;19913;-76
2021/06/18 02:27:40;;;;;;;;;;;;;;;-142.75;68.47;76304.56;5034105;28;19916;-80
2021/06/18 02:30:06;;;;;;;;;;;;;;;-142.75;68.50;76316.38;5054060;28;19944;-81
2021/06/18 02:32:32;;;;;;;;;;;;;;;-142.75;68.77;76310.47;5030931;28;19919;-79
2021/06/18 02:34:58;;;;;;;;;;;;;;;-142.75;68.70;76312.44;5035240;28;19932;-83
2021/06/18 02:37:23;;;;;;;;;;;;;;;-142.75;68.76;76306.53;5036401;28;20371;-83
2021/06/18 02:39:49;;;;;;;;;;;;;;;-142.75;69.01;76298.66;5026711;28;20305;-81
2021/06/18 02:42:14;;;;;;;;;;;;;;;-142.75;69.19;76310.47;5021628;28;20294;-83
2021/06/18 02:44:39;;;;;;;;;;;;;;;-142.75;69.37;76324.25;5024587;28;19917;-81
2021/06/18 02:47:14;;;;;;;;;;;;;;;-142.75;69.47;76320.31;5023696;28;19912;-81
2021/06/18 02:49:39;;;;;;;;;;;;;;;-142.75;69.64;76310.47;5028394;28;19921;-81
2021/06/18 02:52:06;;;;;;;;;;;;;;;-142.75;69.89;76314.41;5045741;28;19919;-80
2021/06/18 02:54:34;;;;;;;;;;;;;;;-142.75;70.07;76318.34;5047567;28;19920;-82
2021/06/18 02:57:18;;;;;;;;;;;;;;;-142.75;70.26;76316.38;5028787;28;19974;-81
2021/06/18 02:59:52;;;;;;;;;;;;;;;-142.75;70.39;76326.22;5035823;28;19920;-81
2021/06/18 03:02:19;;;;;;;;;;;;;;;-142.75;70.38;76324.25;5052918;28;19916;-82
2021/06/18 03:04:44;;;;;;;;;;;;;;;-142.75;70.47;76330.16;5028188;28;19945;-81
2021/06/18 03:07:17;;;;;;;;;;;;;;;-142.75;70.48;76332.13;5024325;28;19947;-83
2021/06/18 03:09:48;;;;;;;;;;;;;;;-142.75;70.55;76334.09;5053893;28;19959;-82
2021/06/18 03:12:14;;;;;;;;;;;;;;;-142.75;70.63;76326.22;5051850;28;20016;-82
2021/06/18 03:14:42;;;;;;;;;;;;;;;-142.75;70.75;76328.19;5034046;28;20043;-82
2021/06/18 03:17:10;;;;;;;;;;;;;;;-142.75;70.71;76330.16;5051099;28;19912;-82
2021/06/18 03:19:42;;;;;;;;;;;;;;;-142.75;70.79;76330.16;5034898;28;19917;-82
2021/06/18 03:22:09;;;;;;;;;;;;;;;-142.75;70.71;76326.22;5036086;28;19922;-83
2021/06/18 03:24:35;;;;;;;;;;;;;;;-142.75;70.67;76341.97;5054953;28;19913;-82
2021/06/18 03:27:01;;;;;;;;;;;;;;;-142.75;71.12;76361.63;5024213;28;19998;-80
2021/06/18 03:29:27;;;;;;;;;;;;;;;-142.75;71.46;76377.38;5018512;28;19944;-80
2021/06/18 03:31:53;;;;;;;;;;;;;;;-142.75;71.55;76391.16;5041670;28;19916;-79
2021/06/18 03:34:19;;;;;;;;;;;;;;;-142.75;71.80;76401.00;5033115;28;20324;-81
2021/06/18 03:36:45;;;;;;;;;;;;;;;-142.75;72.09;76397.06;5051691;28;19916;-82
2021/06/18 03:39:10;;;;;;;;;;;;;;;-142.75;72.21;76402.97;5033692;28;19982;-81
2021/06/18 03:41:36;;;;;;;;;;;;;;;-142.75;72.24;76387.22;5027206;28;19920;-80
2021/06/18 03:44:01;;;;;;;;;;;;;;;-142.75;72.21;76389.19;5041030;28;19916;-82
2021/06/18 03:46:27;;;;;;;;;;;;;;;-142.75;72.39;76391.16;5051883;28;20384;-79
2021/06/18 03:48:53;;;;;;;;;;;;;;;-142.75;72.81;76402.97;5050514;28;19913;-80
2021/06/18 03:51:19;;;;;;;;;;;;;;;-142.75;73.12;76412.81;5050418;28;19923;-78
2021/06/18 03:53:44;;;;;;;;;;;;;;;-142.75;73.44;76412.81;5036752;28;19912;-79
2021/06/18 03:56:11;;;;;;;;;;;;;;;-142.75;74.93;76408.88;5055626;28;19958;-77
2021/06/18 03:58:38;;;;;;;;;;;;;;;-142.75;75.51;76418.72;5036745;28;19920;-81
2021/06/18 04:01:04;;;;;;;;;;;;;;;-142.75;75.73;76428.56;5054529;28;19917;-81
2021/06/18 04:03:31;;;;;;;;;;;;;;;-142.75;75.95;76420.69;5055213;28;19939;-79
2021/06/18 04:05:58;;;;;;;;;;;;;;;-142.75;76.06;76420.69;5054301;28;19914;-77
2021/06/18 04:08:23;;;;;;;;;;;;;;;-142.75;76.35;76420.69;5036321;28;19916;-78
2021/06/18 04:10:49;;;;;;;;;;;;;;;-142.75;76.73;76412.81;5054125;28;19983;-79
2021/06/18 04:13:14;;;;;;;;;;;;;;;-142.75;76.95;76414.78;5054409;28;20324;-79
2021/06/18 04:15:40;;;;;;;;;;;;;;;-142.75;77.16;76420.69;5054307;28;19927;-79
2021/06/18 04:18:05;;;;;;;;;;;;;;;-142.75;77.38;76418.72;5036561;28;20521;-81
2021/06/18 04:20:31;;;;;;;;;;;;;;;-142.75;77.42;76410.84;5031223;28;20400;-80
2021/06/18 04:22:56;;;;;;;;;;;;;;;-142.75;77.45;76404.94;5036843;28;19913;-79
2021/06/18 04:25:22;;;;;;;;;;;;;;;-142.75;77.43;76393.13;5055004;28;19913;-81
2021/06/18 04:27:48;;;;;;;;;;;;;;;-142.75;77.41;76377.38;5036610;28;20336;-81
2021/06/18 04:30:14;;;;;;;;;;;;;;;-142.75;77.50;76375.41;5032070;28;19913;-80
2021/06/18 04:32:40;;;;;;;;;;;;;;;-142.75;77.56;76371.47;5024482;28;19974;-79
2021/06/18 04:35:07;;;;;;;;;;;;;;;-142.75;77.68;76369.50;5041644;28;19921;-80
2021/06/18 04:37:33;;;;;;;;;;;;;;;-142.75;77.53;76367.53;5053337;28;19913;-81
2021/06/18 04:39:58;;;;;;;;;;;;;;;-142.75;77.43;76365.56;5054322;28;20389;-80
2021/06/18 04:42:23;;;;;;;;;;;;;;;-142.75;77.45;76347.84;5036508;28;19916;-82
2021/06/18 04:44:49;;;;;;;;;;;;;;;-142.75;77.46;76338.03;5036625;28;20003;-79
2021/06/18 04:47:14;;;;;;;;;;;;;;;-142.75;77.34;76334.09;5054176;28;20285;-80
2021/06/18 04:49:39;;;;;;;;;;;;;;;-142.75;76.89;76355.72;5054107;28;20377;-81
2021/06/18 04:52:07;;;;;;;;;;;;;;;-142.75;76.40;76359.66;5035869;28;19920;-79
2021/06/18 04:54:32;;;;;;;;;;;;;;;-142.75;76.11;76359.66;5036362;28;20279;-78
2021/06/18 04:56:58;;;;;;;;;;;;;;;-142.75;76.13;76371.47;5028332;28;19916;-79
2021/06/18 04:59:23;;;;;;;;;;;;;;;-142.75;76.04;76377.38;5053710;28;20429;-78
2021/06/18 05:01:48;;;;;;;;;;;;;;;-142.75;76.15;76361.63;5053209;28;20007;-77
2021/06/18 05:04:13;;;;;;;;;;;;;;;-142.75;76.08;76357.69;5034442;28;20068;-77
2021/06/18 05:06:38;;;;;;;;;;;;;;;-142.75;75.97;76353.78;5045767;28;19974;-78
2021/06/18 05:09:04;;;;;;;;;;;;;;;-142.75;75.88;76351.81;5042283;28;20393;-78
2021/06/18 05:11:30;;;;;;;;;;;;;;;-142.75;75.51;76341.97;5022959;28;19920;-79
2021/06/18 05:13:55;;;;;;;;;;;;;;;-142.75;75.19;76345.91;5015941;28;19913;-79
2021/06/18 05:16:20;;;;;;;;;;;;;;;-142.75;75.04;76334.09;5039075;28;20030;-79
2021/06/18 05:18:45;;;;;;;;;;;;;;;-142.75;74.78;76334.09;5034389;28;20401;-77
2021/06/18 05:21:11;;;;;;;;;;;;;;;-142.75;74.41;76334.09;5036372;28;20397;-78
2021/06/18 05:23:36;;;;;;;;;;;;;;;-142.75;73.74;76326.22;5051170;28;19912;-79
2021/06/18 05:26:01;;;;;;;;;;;;;;;-142.75;73.43;76322.28;5027156;28;19913;-79
2021/06/18 05:28:26;;;;;;;;;;;;;;;-142.75;73.68;76316.38;5050095;28;20289;-78
2021/06/18 05:30:51;;;;;;;;;;;;;;;-142.75;73.58;76308.50;5049265;28;19926;-77
2021/06/18 05:33:16;;;;;;;;;;;;;;;-142.75;73.18;76304.56;5052059;28;19912;-80
2021/06/18 05:35:44;;;;;;;;;;;;;;;-142.75;73.23;76298.66;5034936;28;19927;-78
2021/06/18 05:38:09;;;;;;;;;;;;;;;-142.75;73.29;76302.59;5047677;28;19939;-78
2021/06/18 05:40:35;;;;;;;;;;;;;;;-142.75;72.90;76300.63;5031939;28;19917;-77
2021/06/18 05:43:00;;;;;;;;;;;;;;;-142.75;72.86;76286.84;5032676;28;19999;-78
2021/06/18 05:45:25;;;;;;;;;;;;;;;-142.75;72.87;76286.84;5014861;28;19924;-79
2021/06/18 05:47:50;;;;;;;;;;;;;;;-142.75;72.86;76278.97;5034581;28;19975;-80
2021/06/18 05:50:16;;;;;;;;;;;;;;;-142.75;73.12;76277.00;5026111;28;19913;-79
2021/06/18 05:52:41;;;;;;;;;;;;;;;-142.75;73.58;76273.06;5050678;28;19913;-78
2021/06/18 05:55:07;;;;;;;;;;;;;;;-142.75;73.93;76267.16;5052884;28;20286;-79
2021/06/18 05:57:32;;;;;;;;;;;;;;;-142.75;73.84;76255.34;5034770;28;19913;-79
2021/06/18 05:59:57;;;;;;;;;;;;;;;-142.75;73.62;76249.44;5051243;28;20541;-79
2021/06/18 06:02:24;;;;;;;;;;;;;;;-142.75;73.89;76251.41;5034523;28;19978;-80
2021/06/18 06:04:49;;;;;;;;;;;;;;;-142.75;73.46;76265.19;5052710;28;19912;-78
2021/06/18 06:07:14;;;;;;;;;;;;;;;-142.75;73.04;76253.38;5052135;28;20390;-78
2021/06/18 06:09:39;;;;;;;;;;;;;;;-142.75;72.51;76241.56;5030466;28;19913;-78
2021/06/18 06:12:05;;;;;;;;;;;;;;;-142.75;72.17;76241.56;5050303;28;19917;-78
2021/06/18 06:14:30;;;;;;;;;;;;;;;-142.75;72.24;76231.72;5051364;28;19963;-77
2021/06/18 06:16:55;;;;;;;;;;;;;;;-142.75;71.75;76223.84;5051709;28;19919;-78
2021/06/18 06:19:20;;;;;;;;;;;;;;;-142.75;71.33;76223.84;5051587;28;19932;-78
2021/06/18 06:21:46;;;;;;;;;;;;;;;-142.75;70.91;76221.88;5029627;28;20348;-78
2021/06/18 06:24:12;;;;;;;;;;;;;;;-142.75;71.07;76206.13;5034357;28;19955;-78
2021/06/18 06:26:37;;;;;;;;;;;;;;;-142.75;70.75;76206.13;5033736;28;20325;-78
2021/06/18 06:29:03;;;;;;;;;;;;;;;-142.75;70.36;76202.19;5051660;28;19934;-77
2021/06/18 06:31:28;;;;;;;;;;;;;;;-142.75;70.55;76198.28;5033328;28;19912;-78
2021/06/18 06:33:53;;;;;;;;;;;;;;;-142.75;70.46;76192.38;5023960;28;19913;-79
2021/06/18 06:36:18;;;;;;;;;;;;;;;-142.75;70.64;76186.47;5051845;28;19912;-77
2021/06/18 06:38:44;;;;;;;;;;;;;;;-142.75;70.35;76184.50;5051321;28;20003;-78
2021/06/18 06:41:09;;;;;;;;;;;;;;;-142.75;71.01;76186.47;5051025;28;19935;-77
2021/06/18 06:43:34;;;;;;;;;;;;;;;-142.75;70.60;76188.44;5051574;28;20344;-79
2021/06/18 06:45:59;;;;;;;;;;;;;;;-142.75;70.54;76178.59;5049865;28;19920;-77
2021/06/18 06:48:25;;;;;;;;;;;;;;;-142.75;70.88;76164.81;5027469;28;19920;-79
2021/06/18 06:50:51;;;;;;;;;;;;;;;-142.75;70.73;76166.78;5021634;28;19913;-79
2021/06/18 06:53:16;;;;;;;;;;;;;;;-142.75;70.69;76160.88;5016414;28;19913;-78
2021/06/18 06:55:42;;;;;;;;;;;;;;;-142.75;70.77;76168.75;5016983;28;19913;-80
2021/06/18 06:58:07;;;;;;;;;;;;;;;-142.75;71.12;76164.81;5032804;28;19920;-78
2021/06/18 07:00:32;;;;;;;;;;;;;;;-142.75;70.76;76172.69;5050732;28;20015;-78
2021/06/18 07:02:58;;;;;;;;;;;;;;;-142.75;70.79;76174.66;5039537;28;19921;-77
2021/06/18 07:05:23;;;;;;;;;;;;;;;-142.75;70.09;76168.75;5013510;28;19967;-79
2021/06/18 07:07:48;;;;;;;;;;;;;;;-142.75;70.38;76170.72;5013273;28;19913;-81
2021/06/18 07:10:13;;;;;;;;;;;;;;;-142.75;69.76;76176.63;5050770;28;19912;-77
2021/06/18 07:12:39;;;;;;;;;;;;;;;-142.75;69.75;76190.41;5051053;28;20565;-80
2021/06/18 07:15:04;;;;;;;;;;;;;;;-142.75;70.11;76192.38;5033833;28;19966;-78
2021/06/18 07:17:30;;;;;;;;;;;;;;;-142.75;70.00;76192.38;5051187;28;19919;-79
2021/06/18 07:19:56;;;;;;;;;;;;;;;-142.75;70.02;76192.38;5050824;28;19927;-78
2021/06/18 07:22:22;;;;;;;;;;;;;;;-142.75;70.05;76184.50;5049566;28;19995;-78
2021/06/18 07:24:50;;;;;;;;;;;;;;;-142.75;70.38;76184.50;5033391;28;19962;-81
2021/06/18 07:27:16;;;;;;;;;;;;;;;-142.75;70.20;76196.31;5027365;28;19920;-79
2021/06/18 07:29:42;;;;;;;;;;;;;;;-142.75;69.96;76188.44;5014886;28;19917;-80
2021/06/18 07:32:08;;;;;;;;;;;;;;;-142.75;69.97;76188.44;5032833;28;20328;-79
2021/06/18 07:34:34;;;;;;;;;;;;;;;-142.75;70.15;76184.50;5015178;28;19966;-80
2021/06/18 07:36:59;;;;;;;;;;;;;;;-142.75;69.84;76182.53;5044524;28;19916;-80
2021/06/18 07:39:24;;;;;;;;;;;;;;;-142.75;69.81;76180.56;5030948;28;19925;-81
2021/06/18 07:41:49;;;;;;;;;;;;;;;-142.75;69.57;76176.63;5019129;28;19913;-79
2021/06/18 07:44:14;;;;;;;;;;;;;;;-142.75;70.11;76176.63;5045860;28;19913;-80
2021/06/18 07:46:40;;;;;;;;;;;;;;;-142.75;70.39;76182.53;5033529;28;20001;-79
2021/06/18 07:49:05;;;;;;;;;;;;;;;-142.75;70.03;76172.69;5033109;28;19924;-79
2021/06/18 07:51:30;;;;;;;;;;;;;;;-142.75;70.35;76158.91;5050683;28;19983;-80
2021/06/18 07:53:56;;;;;;;;;;;;;;;-142.75;70.40;76139.22;5048495;28;19978;-79
2021/06/18 07:56:25;;;;;;;;;;;;;;;-142.75;69.94;76105.75;5033626;28;19913;-80
2021/06/18 07:58:51;;;;;;;;;;;;;;;-142.75;68.72;76086.06;5051204;28;20015;-80
2021/06/18 08:01:17;;;;;;;;;;;;;;;-142.75;69.40;76050.66;5048467;28;19995;-79
2021/06/18 08:03:42;;;;;;;;;;;;;;;-142.75;68.02;76044.75;5029407;28;20294;-80
2021/06/18 08:06:07;;;;;;;;;;;;;;;-142.75;68.88;76013.25;5050845;28;20338;-80
2021/06/18 08:08:32;;;;;;;;;;;;;;;-142.75;68.24;75999.47;5050743;28;19913;-80
2021/06/18 08:10:58;;;;;;;;;;;;;;;-142.75;66.61;75985.69;5024864;28;19921;-81
2021/06/18 08:13:23;;;;;;;;;;;;;;;-142.75;67.38;75899.09;5038254;28;19955;-81
2021/06/18 08:15:48;;;;;;;;;;;;;;;-142.75;63.26;75818.41;5037639;28;19924;-80
2021/06/18 08:18:13;;;;;;;;;;;;;;;-142.75;60.67;75708.19;5044045;28;19943;-80
2021/06/18 08:20:39;;;;;;;;;;;;;;;-142.75;60.28;75723.94;5041104;28;19923;-79
2021/06/18 08:23:04;;;;;;;;;;;;;;;-142.75;61.25;75771.16;5050756;28;19920;-81
2021/06/18 08:25:29;;;;;;;;;;;;;;;-142.75;61.39;75745.59;5032006;28;19999;-81
2021/06/18 08:27:54;;;;;;;;;;;;;;;-142.75;60.86;75741.66;5032977;28;19917;-80
2021/06/18 08:30:20;;;;;;;;;;;;;;;-142.75;60.47;75716.06;5029999;28;19923;-80
2021/06/18 08:32:45;;;;;;;;;;;;;;;-142.75;58.86;75690.47;5046999;28;19912;-79
2021/06/18 08:35:10;;;;;;;;;;;;;;;-142.75;58.49;75660.97;5031363;28;19963;-79
2021/06/18 08:37:36;;;;;;;;;;;;;;;-142.75;56.34;75590.13;5050831;28;19982;-78
2021/06/18 08:40:02;;;;;;;;;;;;;;;-142.75;57.82;75519.25;5031168;28;19921;-80
2021/06/18 08:42:28;;;;;;;;;;;;;;;-142.75;54.73;75527.13;5054703;28;19939;-78
2021/06/18 08:44:54;;;;;;;;;;;;;;;-142.75;54.71;75527.13;5033338;28;20737;-79
2021/06/18 08:47:19;;;;;;;;;;;;;;;-142.75;54.22;75536.97;5029924;28;19917;-79
2021/06/18 08:49:45;;;;;;;;;;;;;;;-142.75;53.79;75556.66;5049526;28;19920;-78
2021/06/18 08:52:10;;;;;;;;;;;;;;;-142.75;53.97;75542.88;5036202;28;19919;-79
2021/06/18 08:54:41;;;;;;;;;;;;;;;-142.75;53.97;75519.25;5035310;28;19919;-79
2021/06/18 08:57:07;;;;;;;;;;;;;;;-142.75;53.80;75499.59;5052894;28;19920;-79
2021/06/18 08:59:33;;;;;;;;;;;;;;;-142.75;53.65;75489.75;5035246;28;19923;-83
2021/06/18 09:01:58;;;;;;;;;;;;;;;-142.75;52.49;75493.69;5053013;28;19916;-81
2021/06/18 09:04:23;;;;;;;;;;;;;;;-142.75;53.09;75487.78;5026030;28;19913;-81
2021/06/18 09:06:49;;;;;;;;;;;;;;;-142.75;51.44;75448.41;5056426;28;20484;-81
2021/06/18 09:09:25;;;;;;;;;;;;;;;-142.75;51.10;75464.16;5025602;28;20293;-78
2021/06/18 09:11:50;;;;;;;;;;;;;;;-142.75;51.43;75444.47;5055852;28;19951;-81
2021/06/18 09:14:18;;;;;;;;;;;;;;;-142.75;51.11;75409.06;5055632;28;19928;-80
2021/06/18 09:17:04;;;;;;;;;;;;;;;-142.75;50.81;75409.06;5037116;28;19917;-79
2021/06/18 09:19:29;;;;;;;;;;;;;;;-142.75;50.77;75377.56;5037300;28;19916;-80
2021/06/18 09:21:59;;;;;;;;;;;;;;;-142.75;48.89;75338.22;5055803;28;19924;-80
2021/06/18 09:24:28;;;;;;;;;;;;;;;-142.75;48.90;75334.28;5021010;28;19912;-81
2021/06/18 09:26:53;;;;;;;;;;;;;;;-142.75;48.56;75308.69;5037890;28;19936;-79
2021/06/18 09:29:19;;;;;;;;;;;;;;;-142.75;49.96;75283.13;5044140;28;19912;-81
2021/06/18 09:31:47;;;;;;;;;;;;;;;-142.75;48.44;75283.13;5029549;28;19927;-79
2021/06/18 09:34:13;;;;;;;;;;;;;;;-142.75;47.27;75198.50;5024363;28;20428;-79
2021/06/18 09:36:39;;;;;;;;;;;;;;;-142.75;47.86;75192.59;5045327;28;20008;-80
2021/06/18 09:39:09;;;;;;;;;;;;;;;-142.75;47.56;75204.41;5057551;28;19932;-81
2021/06/18 09:41:42;;;;;;;;;;;;;;;-142.75;47.58;75228.00;5042065;28;19920;-80
2021/06/18 09:44:09;;;;;;;;;;;;;;;-142.75;48.96;75216.22;5057457;28;20309;-82
2021/06/18 09:46:51;;;;;;;;;;;;;;;-142.75;46.38;75133.56;5057488;28;20385;-83
2021/06/18 09:49:32;;;;;;;;;;;;;;;-142.75;45.08;75141.44;5055964;28;19924;-82
2021/06/18 09:51:57;;;;;;;;;;;;;;;-142.75;46.41;75157.19;5042848;28;19912;-82
2021/06/18 09:54:22;;;;;;;;;;;;;;;-142.75;46.98;75243.75;5042279;28;20062;-83
2021/06/18 09:56:48;;;;;;;;;;;;;;;-142.75;47.15;75204.41;5042119;28;19956;-82
2021/06/18 09:59:21;;;;;;;;;;;;;;;-142.75;46.47;75200.47;5053651;28;19920;-83
2021/06/18 10:01:50;;;;;;;;;;;;;;;-142.75;46.65;75188.66;5058060;28;20571;-81
2021/06/18 10:04:16;;;;;;;;;;;;;;;-142.75;47.96;75125.69;5037468;28;19919;-81
2021/06/18 10:06:42;;;;;;;;;;;;;;;-142.75;47.25;75129.63;5035607;28;19913;-82
2021/06/18 10:09:08;;;;;;;;;;;;;;;-142.75;46.88;75141.44;5057012;28;19912;-81
2021/06/18 10:11:34;;;;;;;;;;;;;;;-142.75;45.66;75106.00;5042292;28;19916;-82
2021/06/18 10:13:59;;;;;;;;;;;;;;;-142.75;46.98;75218.19;5047134;28;19959;-81
2021/06/18 10:16:26;;;;;;;;;;;;;;;-142.75;47.40;75133.56;5018715;28;19920;-81
2021/06/18 10:18:52;;;;;;;;;;;;;;;-142.75;46.13;75104.03;5019947;28;19913;-79
2021/06/18 10:21:17;;;;;;;;;;;;;;;-142.75;47.17;75163.09;5054849;28;19961;-78
2021/06/18 10:23:44;;;;;;;;;;;;;;;-142.75;49.09;75222.13;5055647;28;19912;-80
2021/06/18 10:26:12;;;;;;;;;;;;;;;-142.75;48.78;75226.06;5035559;28;19962;-77
2021/06/18 10:28:37;;;;;;;;;;;;;;;-142.75;47.48;75143.41;5035372;28;19959;-77
2021/06/18 10:31:03;;;;;;;;;;;;;;;-142.75;47.47;75168.97;5035552;28;19913;-78
2021/06/18 10:33:28;;;;;;;;;;;;;;;-142.75;49.11;75233.91;5053347;23;19921;-77
2021/06/18 10:36:02;;;;;;;;;;;;;;;-142.75;49.62;75245.72;5030994;28;19923;-77
2021/06/18 10:38:30;;;;;;;;;;;;;;;-142.75;50.68;75275.25;5033342;28;19913;-77
2021/06/18 10:40:56;;;;;;;;;;;;;;;-142.75;51.22;75298.84;5032765;28;19971;-77
2021/06/18 10:43:31;;;;;;;;;;;;;;;-142.75;51.76;75306.72;5031599;28;20329;-77
2021/06/18 10:46:00;;;;;;;;;;;;;;;-142.75;50.86;75289.03;5030227;28;20359;-77
2021/06/18 10:48:44;;;;;;;;;;;;;;;-142.75;50.96;75263.44;5026314;28;20007;-76
2021/06/18 10:51:27;;;;;;;;;;;;;;;-142.75;50.65;75229.97;5026462;28;19913;-77
2021/06/18 10:53:54;;;;;;;;;;;;;;;-142.75;50.72;75210.31;5032876;28;19913;-77
2021/06/18 10:56:43;;;;;;;;;;;;;;;-142.75;48.69;75121.75;5032540;28;19928;-75
2021/06/18 10:59:09;;;;;;;;;;;;;;;-142.75;47.94;75090.28;5032205;28;19913;-77
2021/06/18 11:01:35;;;;;;;;;;;;;;;-142.75;48.09;75106.00;5031714;28;20007;-76
2021/06/18 11:04:00;;;;;;;;;;;;;;;-142.75;47.93;75046.97;5032060;28;19951;-76
2021/06/18 11:06:43;;;;;;;;;;;;;;;-142.75;48.67;75147.34;5031619;28;20317;-76
2021/06/18 11:09:09;;;;;;;;;;;;;;;-142.75;49.68;75121.75;5027280;28;20421;-76
2021/06/18 11:11:34;;;;;;;;;;;;;;;-142.75;49.29;75094.22;5010538;28;19949;-76
2021/06/18 11:14:03;;;;;;;;;;;;;;;-142.75;49.37;75031.25;5021405;28;19959;-75
2021/06/18 11:16:32;;;;;;;;;;;;;;;-142.75;48.53;75003.69;5020198;28;19969;-75
2021/06/18 11:19:17;;;;;;;;;;;;;;;-142.75;47.81;75029.28;5030271;28;20374;-75
2021/06/18 11:21:43;;;;;;;;;;;;;;;-142.75;48.77;75046.97;5030985;28;19916;-76
2021/06/18 11:24:08;;;;;;;;;;;;;;;-142.75;48.87;75041.09;5021111;28;20345;-76
2021/06/18 11:26:33;;;;;;;;;;;;;;;-142.75;48.72;75096.19;5018607;28;19913;-76
2021/06/18 11:28:58;;;;;;;;;;;;;;;-142.75;49.67;75117.81;5011735;28;19913;-76
2021/06/18 11:31:37;;;;;;;;;;;;;;;-142.75;50.09;75129.63;5011403;28;20433;-75
2021/06/18 11:34:03;;;;;;;;;;;;;;;-142.75;51.05;75125.69;5030624;28;19913;-75
2021/06/18 11:36:37;;;;;;;;;;;;;;;-142.75;50.27;75204.41;5031509;28;20430;-75
2021/06/18 11:39:08;;;;;;;;;;;;;;;-142.75;50.00;75184.72;5018440;28;19917;-76
2021/06/18 11:41:43;;;;;;;;;;;;;;;-142.75;50.83;75155.22;5011176;28;19944;-76
2021/06/18 11:44:09;;;;;;;;;;;;;;;-142.75;50.01;75139.47;5029201;28;19912;-76
2021/06/18 11:46:36;;;;;;;;;;;;;;;-142.75;50.36;75157.19;5031338;28;19916;-75
2021/06/18 11:49:17;;;;;;;;;;;;;;;-142.75;50.86;75159.16;5015126;28;20271;-76
2021/06/18 11:51:43;;;;;;;;;;;;;;;-142.75;50.14;75184.72;5028933;28;19963;-76
2021/06/18 11:54:08;;;;;;;;;;;;;;;-142.75;50.53;75168.97;5031239;28;19952;-75
2021/06/18 11:56:34;;;;;;;;;;;;;;;-142.75;50.28;75125.69;5031334;28;19959;-75
2021/06/18 11:58:59;;;;;;;;;;;;;;;-142.75;50.65;75113.88;5026914;28;19970;-74
2021/06/18 12:01:30;;;;;;;;;;;;;;;-142.75;50.06;75121.75;5025506;28;19914;-74
2021/06/18 12:03:56;;;;;;;;;;;;;;;-142.75;49.77;75062.72;5030330;28;20015;-75
2021/06/18 12:06:29;;;;;;;;;;;;;;;-142.75;48.69;75005.66;5031002;28;19948;-75
2021/06/18 12:08:58;;;;;;;;;;;;;;;-142.75;48.59;75009.59;5031103;28;19912;-76
2021/06/18 12:11:23;;;;;;;;;;;;;;;-142.75;47.92;74982.03;5030954;28;19913;-76
2021/06/18 12:13:52;;;;;;;;;;;;;;;-142.75;48.15;74980.06;5031869;28;20382;-75
2021/06/18 12:16:19;;;;;;;;;;;;;;;-142.75;47.07;74956.47;5034991;28;19948;-75
2021/06/18 12:18:44;;;;;;;;;;;;;;;-142.75;47.94;74966.31;5034923;28;19913;-76
2021/06/18 12:21:09;;;;;;;;;;;;;;;-142.75;48.41;74976.16;5034531;28;19924;-75
2021/06/18 12:23:34;;;;;;;;;;;;;;;-142.75;48.27;74980.06;5033728;28;19913;-75
2021/06/18 12:26:00;;;;;;;;;;;;;;;-142.75;46.98;74952.53;5035044;28;19913;-75